createdAt,value
2018-06-09T00:00:58.861Z,14.13
2018-06-09T00:03:27.625Z,12.20
2018-06-09T00:05:56.425Z,13.83
2018-06-09T00:08:25.185Z,13.33
2018-06-09T00:10:53.963Z,15.80
2018-06-09T00:13:22.748Z,15.57
2018-06-09T00:15:51.513Z,14.73
2018-06-09T00:18:20.237Z,17.00
2018-06-09T00:20:48.953Z,14.57
2018-06-09T00:23:17.741Z,15.00
2018-06-09T00:25:46.484Z,15.77
2018-06-09T00:28:15.242Z,15.60
2018-06-09T00:30:43.947Z,15.30
2018-06-09T00:33:12.709Z,17.73
2018-06-09T00:35:41.506Z,19.10
2018-06-09T00:38:10.257Z,17.60
2018-06-09T00:40:39.038Z,19.10
2018-06-09T00:43:07.789Z,18.90
2018-06-09T00:45:36.532Z,20.57
2018-06-09T00:48:05.327Z,21.53
2018-06-09T00:50:34.094Z,20.67
2018-06-09T00:53:02.833Z,19.10
2018-06-09T00:55:31.582Z,22.03
2018-06-09T00:58:00.351Z,22.23
2018-06-09T01:00:29.076Z,23.13
2018-06-09T01:02:57.832Z,20.20
2018-06-09T01:05:26.579Z,22.90
2018-06-09T01:07:55.408Z,20.80
2018-06-09T01:10:28.848Z,21.13
2018-06-09T01:13:00.519Z,20.53
2018-06-09T01:15:33.634Z,22.70
2018-06-09T01:18:07.702Z,22.60
2018-06-09T01:20:40.610Z,21.60
2018-06-09T01:23:13.888Z,22.60
2018-06-09T01:25:47.565Z,21.07
2018-06-09T01:28:23.653Z,22.17
2018-06-09T01:30:57.911Z,21.73
2018-06-09T01:33:31.793Z,19.63
2018-06-09T01:36:05.762Z,18.30
2018-06-09T01:38:41.339Z,19.53
2018-06-09T01:41:14.754Z,17.30
2018-06-09T01:43:51.331Z,19.10
2018-06-09T01:46:22.878Z,19.13
2018-06-09T01:48:56.333Z,21.20
2018-06-09T01:51:31.268Z,21.80
2018-06-09T01:54:04.282Z,20.80
2018-06-09T01:56:39.906Z,21.77
2018-06-09T01:59:14.824Z,22.17
2018-06-09T02:01:47.816Z,22.37
2018-06-09T02:04:22.254Z,20.53
2018-06-09T02:06:55.846Z,21.03
2018-06-09T02:09:28.746Z,21.40
2018-06-09T02:12:01.222Z,20.17
2018-06-09T02:14:37.515Z,21.10
2018-06-09T02:17:10.667Z,22.77
2018-06-09T02:19:43.489Z,19.70
2018-06-09T02:22:13.657Z,20.00
2018-06-09T02:24:47.384Z,22.20
2018-06-09T02:27:19.945Z,24.10
2018-06-09T02:29:52.806Z,26.50
2018-06-09T02:32:25.018Z,24.67
2018-06-09T02:34:57.484Z,24.90
2018-06-09T02:37:28.608Z,22.80
2018-06-09T02:39:58.816Z,24.67
2018-06-09T02:42:28.990Z,27.20
2018-06-09T02:45:02.197Z,25.23
2018-06-09T02:47:35.606Z,25.00
2018-06-09T02:50:05.998Z,24.70
2018-06-09T02:52:37.816Z,25.60
2018-06-09T02:55:10.602Z,24.60
2018-06-09T02:57:43.278Z,24.57
2018-06-09T03:00:16.638Z,25.87
2018-06-09T03:02:49.623Z,25.03
2018-06-09T03:05:22.500Z,30.23
2018-06-09T03:07:54.929Z,27.80
2018-06-09T03:10:28.956Z,25.47
2018-06-09T03:13:01.719Z,23.97
2018-06-09T03:15:34.217Z,24.23
2018-06-09T03:18:06.624Z,27.23
2018-06-09T03:20:40.510Z,25.63
2018-06-09T03:23:13.545Z,25.47
2018-06-09T03:25:47.107Z,23.77
2018-06-09T03:28:19.866Z,25.77
2018-06-09T03:30:53.897Z,23.40
2018-06-09T03:33:26.367Z,28.50
2018-06-09T03:35:55.175Z,25.53
2018-06-09T03:38:23.901Z,22.73
2018-06-09T03:40:52.769Z,22.37
2018-06-09T03:43:21.585Z,18.17
2018-06-09T03:45:50.322Z,18.37
2018-06-09T03:48:19.150Z,18.17
2018-06-09T03:50:47.946Z,17.60
2018-06-09T03:53:16.714Z,19.53
2018-06-09T03:55:45.461Z,17.70
2018-06-09T03:58:14.194Z,18.90
2018-06-09T04:00:42.920Z,18.10
2018-06-09T04:03:12.534Z,20.00
2018-06-09T04:05:41.299Z,20.97
2018-06-09T04:08:09.992Z,24.87
2018-06-09T04:10:38.722Z,21.67
2018-06-09T04:13:07.521Z,21.33
2018-06-09T04:15:36.204Z,27.00
2018-06-09T04:18:05.010Z,26.37
2018-06-09T04:20:33.825Z,31.07
2018-06-09T04:23:02.572Z,31.13
2018-06-09T04:25:31.464Z,31.73
2018-06-09T04:28:00.259Z,29.23
2018-06-09T04:30:29.017Z,31.67
2018-06-09T04:32:57.861Z,25.00
2018-06-09T04:35:26.695Z,21.90
2018-06-09T04:37:55.497Z,23.33
2018-06-09T04:40:24.349Z,21.17
2018-06-09T04:42:53.217Z,25.53
2018-06-09T04:45:21.966Z,30.50
2018-06-09T04:47:50.653Z,33.07
2018-06-09T04:50:19.522Z,30.90
2018-06-09T04:52:48.605Z,32.40
2018-06-09T04:55:17.390Z,28.90
2018-06-09T04:57:46.209Z,35.27
2018-06-09T05:00:15.060Z,34.30
2018-06-09T05:02:43.962Z,31.23
2018-06-09T05:05:12.708Z,31.63
2018-06-09T05:07:41.473Z,33.17
2018-06-09T05:10:10.253Z,32.63
2018-06-09T05:12:39.060Z,31.77
2018-06-09T05:15:07.823Z,31.90
2018-06-09T05:17:36.656Z,31.43
2018-06-09T05:20:05.452Z,32.43
2018-06-09T05:22:34.249Z,31.40
2018-06-09T05:25:03.041Z,33.13
2018-06-09T05:27:32.101Z,35.10
2018-06-09T05:30:00.925Z,31.67
2018-06-09T05:32:29.706Z,35.50
2018-06-09T05:34:58.466Z,35.77
2018-06-09T05:37:27.205Z,30.00
2018-06-09T05:39:56.010Z,30.10
2018-06-09T05:42:24.782Z,31.57
2018-06-09T05:44:53.655Z,31.97
2018-06-09T05:47:22.484Z,32.63
2018-06-09T05:49:51.346Z,30.77
2018-06-09T05:52:21.806Z,30.53
2018-06-09T05:54:50.603Z,34.00
2018-06-09T05:57:19.450Z,32.27
2018-06-09T05:59:48.225Z,29.27
2018-06-09T06:02:17.001Z,33.10
2018-06-09T06:04:45.717Z,34.37
2018-06-09T06:07:14.406Z,30.57
2018-06-09T06:09:43.106Z,26.40
2018-06-09T06:12:11.801Z,30.73
2018-06-09T06:14:40.570Z,29.20
2018-06-09T06:17:09.297Z,30.00
2018-06-09T06:19:38.040Z,31.03
2018-06-09T06:22:06.985Z,30.23
2018-06-09T06:24:35.780Z,29.10
2018-06-09T06:27:04.574Z,27.20
2018-06-09T06:29:33.701Z,26.13
2018-06-09T06:32:02.633Z,24.03
2018-06-09T06:34:31.452Z,27.13
2018-06-09T06:37:00.364Z,25.20
2018-06-09T06:39:29.223Z,22.00
2018-06-09T06:41:58.106Z,24.87
2018-06-09T06:44:26.956Z,21.60
2018-06-09T06:46:55.785Z,23.43
2018-06-09T06:49:24.922Z,24.07
2018-06-09T06:51:53.714Z,20.50
2018-06-09T06:54:22.528Z,23.53
2018-06-09T06:56:51.291Z,22.27
2018-06-09T06:59:20.077Z,22.73
2018-06-09T07:01:48.971Z,24.37
2018-06-09T07:04:17.788Z,22.73
2018-06-09T07:06:46.516Z,22.30
2018-06-09T07:09:14.962Z,23.70
2018-06-09T07:11:43.821Z,22.40
2018-06-09T07:14:12.607Z,21.30
2018-06-09T07:16:41.380Z,21.23
2018-06-09T07:19:10.137Z,22.00
2018-06-09T07:21:38.944Z,19.80
2018-06-09T07:24:07.674Z,23.23
2018-06-09T07:26:36.428Z,23.10
2018-06-09T07:29:05.260Z,22.00
2018-06-09T07:31:34.028Z,23.40
2018-06-09T07:34:02.837Z,24.10
2018-06-09T07:36:31.711Z,21.43
2018-06-09T07:39:00.590Z,20.93
2018-06-09T07:41:29.350Z,19.00
2018-06-09T07:43:58.237Z,23.77
2018-06-09T07:46:26.972Z,22.27
2018-06-09T07:48:55.733Z,20.97
2018-06-09T07:51:24.414Z,18.70
2018-06-09T07:53:53.221Z,20.60
2018-06-09T07:56:21.989Z,16.70
2018-06-09T07:58:50.713Z,17.80
2018-06-09T08:01:19.536Z,19.67
2018-06-09T08:03:48.309Z,18.53
2018-06-09T08:06:17.139Z,17.10
2018-06-09T08:08:45.952Z,21.00
2018-06-09T08:11:14.764Z,19.70
2018-06-09T08:13:43.525Z,18.63
2018-06-09T08:16:12.291Z,18.00
2018-06-09T08:18:41.070Z,17.63
2018-06-09T08:21:09.885Z,17.57
2018-06-09T08:23:38.760Z,19.17
2018-06-09T08:26:07.532Z,18.20
2018-06-09T08:28:36.229Z,18.20
2018-06-09T08:31:04.903Z,18.17
2018-06-09T08:33:33.649Z,17.10
2018-06-09T08:36:02.412Z,18.17
2018-06-09T08:38:31.594Z,16.00
2018-06-09T08:41:00.305Z,16.53
2018-06-09T08:43:29.089Z,18.10
2018-06-09T08:45:57.832Z,16.30
2018-06-09T08:48:26.588Z,16.30
2018-06-09T08:50:55.313Z,16.80
2018-06-09T08:53:24.065Z,15.87
2018-06-09T08:55:52.797Z,17.83
2018-06-09T08:58:21.625Z,17.47
2018-06-09T09:00:50.325Z,16.67
2018-06-09T09:03:19.071Z,17.17
2018-06-09T09:05:47.785Z,16.53
2018-06-09T09:08:17.017Z,16.70
2018-06-09T09:10:45.744Z,17.93
2018-06-09T09:13:14.667Z,17.13
2018-06-09T09:15:43.435Z,15.17
2018-06-09T09:18:12.233Z,17.60
2018-06-09T09:20:40.966Z,18.47
2018-06-09T09:23:09.683Z,17.17
2018-06-09T09:25:38.385Z,15.07
2018-06-09T09:28:07.096Z,14.33
2018-06-09T09:30:35.865Z,15.73
2018-06-09T09:33:04.624Z,15.77
2018-06-09T09:35:33.442Z,16.47
2018-06-09T09:38:02.126Z,15.57
2018-06-09T09:40:30.809Z,14.60
2018-06-09T09:42:59.553Z,14.10
2018-06-09T09:45:28.308Z,15.40
2018-06-09T09:47:57.041Z,15.17
2018-06-09T09:50:25.750Z,13.80
2018-06-09T09:52:54.485Z,12.73
2018-06-09T09:55:23.230Z,13.60
2018-06-09T09:57:58.545Z,15.50
2018-06-09T10:00:33.232Z,15.07
2018-06-09T10:03:02.028Z,12.77
2018-06-09T10:05:30.772Z,15.80
2018-06-09T10:07:59.469Z,14.40
2018-06-09T10:10:28.482Z,13.13
2018-06-09T10:12:57.176Z,15.23
2018-06-09T10:15:25.908Z,14.33
2018-06-09T10:17:54.750Z,13.23
2018-06-09T10:20:23.526Z,17.13
2018-06-09T10:22:52.305Z,15.50
2018-06-09T10:25:20.997Z,14.67
2018-06-09T10:27:49.743Z,14.37
2018-06-09T10:30:18.911Z,14.70
2018-06-09T10:32:47.772Z,13.93
2018-06-09T10:35:16.739Z,16.57
2018-06-09T10:37:45.534Z,16.57
2018-06-09T10:40:15.417Z,14.40
2018-06-09T10:42:45.257Z,15.70
2018-06-09T10:45:15.318Z,15.80
2018-06-09T10:47:45.051Z,15.80
2018-06-09T10:50:13.892Z,15.03
2018-06-09T10:52:42.652Z,13.30
2018-06-09T10:55:11.404Z,16.13
2018-06-09T10:57:40.143Z,16.33
2018-06-09T11:00:08.850Z,14.23
2018-06-09T11:02:37.685Z,15.83
2018-06-09T11:05:06.516Z,15.60
2018-06-09T11:07:35.312Z,14.60
2018-06-09T11:10:04.088Z,14.27
2018-06-09T11:12:32.851Z,14.03
2018-06-09T11:15:04.995Z,13.70
2018-06-09T11:17:33.744Z,16.30
2018-06-09T11:20:02.501Z,15.10
2018-06-09T11:22:31.304Z,12.97
2018-06-09T11:25:00.072Z,13.40
2018-06-09T11:27:28.900Z,15.60
2018-06-09T11:29:57.609Z,13.93
2018-06-09T11:32:26.379Z,14.93
2018-06-09T11:34:55.125Z,13.77
2018-06-09T11:37:23.937Z,13.53
2018-06-09T11:39:52.671Z,14.40
2018-06-09T11:42:21.712Z,15.13
2018-06-09T11:44:50.519Z,12.90
2018-06-09T11:47:19.316Z,13.93
2018-06-09T11:49:48.083Z,14.70
2018-06-09T11:52:16.853Z,13.03
2018-06-09T11:54:45.599Z,15.20
2018-06-09T11:57:14.334Z,16.40
2018-06-09T11:59:43.094Z,14.40
2018-06-09T12:02:11.832Z,13.63
2018-06-09T12:04:40.617Z,16.53
2018-06-09T12:07:09.338Z,15.90
2018-06-09T12:09:38.103Z,15.10
2018-06-09T12:12:06.926Z,17.20
2018-06-09T12:14:36.143Z,15.50
2018-06-09T12:17:05.313Z,14.83
2018-06-09T12:19:34.086Z,14.97
2018-06-09T12:22:02.892Z,13.80
2018-06-09T12:24:31.712Z,14.80
2018-06-09T12:27:00.571Z,15.17
2018-06-09T12:29:29.455Z,14.37
2018-06-09T12:31:58.232Z,13.70
2018-06-09T12:34:27.069Z,14.00
2018-06-09T12:36:55.837Z,12.13
2018-06-09T12:39:24.664Z,15.30
2018-06-09T12:41:53.514Z,16.13
2018-06-09T12:44:22.280Z,14.90
2018-06-09T12:46:51.050Z,14.53
2018-06-09T12:49:19.847Z,15.80
2018-06-09T12:51:48.794Z,15.17
2018-06-09T12:54:17.586Z,13.10
2018-06-09T12:56:46.349Z,15.00
2018-06-09T12:59:15.180Z,13.53
2018-06-09T13:01:44.196Z,13.20
2018-06-09T13:04:13.009Z,12.93
2018-06-09T13:06:41.814Z,13.70
2018-06-09T13:09:10.752Z,12.70
2018-06-09T13:11:39.573Z,12.37
2018-06-09T13:14:08.387Z,12.90
2018-06-09T13:16:37.145Z,12.27
2018-06-09T13:19:07.053Z,12.43
2018-06-09T13:21:35.890Z,13.50
2018-06-09T13:24:04.749Z,11.47
2018-06-09T13:26:33.632Z,13.47
2018-06-09T13:29:02.400Z,12.90
2018-06-09T13:31:31.227Z,12.27
2018-06-09T13:34:00.046Z,13.20
2018-06-09T13:36:28.980Z,12.70
2018-06-09T13:38:57.931Z,12.60
2018-06-09T13:41:26.826Z,12.00
2018-06-09T13:43:55.691Z,12.07
2018-06-09T13:46:24.602Z,12.60
2018-06-09T13:48:53.450Z,12.70
2018-06-09T13:51:22.356Z,12.03
2018-06-09T13:53:51.509Z,13.20
2018-06-09T13:56:20.369Z,13.00
2018-06-09T13:58:49.272Z,12.77
2018-06-09T14:01:18.128Z,16.03
2018-06-09T14:03:46.999Z,14.83
2018-06-09T14:06:15.988Z,11.40
2018-06-09T14:08:44.896Z,10.20
2018-06-09T14:11:14.018Z,9.37
2018-06-09T14:13:44.218Z,8.37
2018-06-09T14:16:13.105Z,7.23
2018-06-09T14:18:41.881Z,8.53
2018-06-09T14:21:10.589Z,9.03
2018-06-09T14:23:39.333Z,8.17
2018-06-09T14:26:08.131Z,9.10
2018-06-09T14:28:37.177Z,9.03
2018-06-09T14:31:06.232Z,11.13
2018-06-09T14:33:35.151Z,10.70
2018-06-09T14:36:04.417Z,10.97
2018-06-09T14:38:33.705Z,10.50
2018-06-09T14:41:02.775Z,11.70
2018-06-09T14:43:31.750Z,11.37
2018-06-09T14:46:00.808Z,12.53
2018-06-09T14:48:29.638Z,12.13
2018-06-09T14:50:58.431Z,11.63
2018-06-09T14:53:27.408Z,13.63
2018-06-09T14:55:56.189Z,12.73
2018-06-09T14:58:25.601Z,12.57
2018-06-09T15:00:54.490Z,12.93
2018-06-09T15:03:23.286Z,12.50
2018-06-09T15:05:52.131Z,11.97
2018-06-09T15:08:20.840Z,13.07
2018-06-09T15:10:49.792Z,13.17
2018-06-09T15:13:18.741Z,12.50
2018-06-09T15:15:47.703Z,12.80
2018-06-09T15:18:16.682Z,13.40
2018-06-09T15:20:45.605Z,13.00
2018-06-09T15:23:14.951Z,14.40
2018-06-09T15:25:44.075Z,13.40
2018-06-09T15:28:13.050Z,13.77
2018-06-09T15:30:41.956Z,13.63
2018-06-09T15:33:10.835Z,12.73
2018-06-09T15:35:39.830Z,17.17
2018-06-09T15:38:08.708Z,14.27
2018-06-09T15:40:37.539Z,14.00
2018-06-09T15:43:07.683Z,15.73
2018-06-09T15:45:36.625Z,14.40
2018-06-09T15:48:05.649Z,14.87
2018-06-09T15:50:34.616Z,15.10
2018-06-09T15:53:03.787Z,14.30
2018-06-09T15:55:32.686Z,14.67
2018-06-09T15:58:01.701Z,15.33
2018-06-09T16:00:31.932Z,14.63
2018-06-09T16:03:01.806Z,14.23
2018-06-09T16:05:30.756Z,13.37
2018-06-09T16:07:59.920Z,13.20
2018-06-09T16:10:28.779Z,14.77
2018-06-09T16:12:57.678Z,14.17
2018-06-09T16:15:30.437Z,16.20
2018-06-09T16:17:59.746Z,14.00
2018-06-09T16:20:29.073Z,14.63
2018-06-09T16:22:57.975Z,15.50
2018-06-09T16:25:26.818Z,14.63
2018-06-09T16:27:55.557Z,14.97
2018-06-09T16:30:24.347Z,16.10
2018-06-09T16:32:53.194Z,16.40
2018-06-09T16:35:21.968Z,15.23
2018-06-09T16:37:51.235Z,15.80
2018-06-09T16:40:20.200Z,15.40
2018-06-09T16:42:52.109Z,14.87
2018-06-09T16:45:21.107Z,15.97
2018-06-09T16:47:49.997Z,14.70
2018-06-09T16:50:18.969Z,14.60
2018-06-09T16:52:49.001Z,15.17
2018-06-09T16:55:17.960Z,17.17
2018-06-09T16:57:47.182Z,16.63
2018-06-09T17:00:15.989Z,15.50
2018-06-09T17:02:44.712Z,16.10
2018-06-09T17:05:13.615Z,16.57
2018-06-09T17:07:42.601Z,17.50
2018-06-09T17:10:11.854Z,17.80
2018-06-09T17:12:40.697Z,16.50
2018-06-09T17:15:12.724Z,17.30
2018-06-09T17:17:41.794Z,16.87
2018-06-09T17:20:10.816Z,16.50
2018-06-09T17:22:39.656Z,17.93
2018-06-09T17:25:08.799Z,17.23
2018-06-09T17:27:37.665Z,17.37
2018-06-09T17:30:06.651Z,16.80
2018-06-09T17:32:35.743Z,15.27
2018-06-09T17:35:04.644Z,10.90
2018-06-09T17:37:33.480Z,9.83
2018-06-09T17:40:02.505Z,7.40
2018-06-09T17:42:31.585Z,11.07
2018-06-09T17:45:00.298Z,16.13
2018-06-09T17:47:29.043Z,10.67
2018-06-09T17:49:57.881Z,9.73
2018-06-09T17:52:26.637Z,11.03
2018-06-09T17:54:55.309Z,13.75
2018-06-09T17:57:24.059Z,14.78
2018-06-09T17:59:55.489Z,2.35
2018-06-09T18:02:24.020Z,17.98
2018-06-09T18:04:52.810Z,36.03
2018-06-09T18:07:21.484Z,59.10
2018-06-09T18:09:49.914Z,0.88
2018-06-09T18:12:18.475Z,0.90
2018-06-09T18:14:48.018Z,1.15
2018-06-09T18:17:17.991Z,1.00
2018-06-09T18:19:48.944Z,0.90
2018-06-09T18:22:19.249Z,0.60
2018-06-09T18:25:06.535Z,0.60
2018-06-09T18:27:38.153Z,0.60
2018-06-09T18:30:08.881Z,57.38
2018-06-09T18:32:38.409Z,73.67
2018-06-09T18:35:06.968Z,88.37
2018-06-09T18:37:35.449Z,59.13
2018-06-09T18:40:06.095Z,51.90
2018-06-09T18:42:36.131Z,79.25
2018-06-09T18:45:05.061Z,47.63
2018-06-09T18:47:33.602Z,76.50
2018-06-09T18:50:02.067Z,78.37
2018-06-09T18:52:30.617Z,57.75
2018-06-09T18:54:59.192Z,72.97
2018-06-09T18:57:27.705Z,81.72
2018-06-09T18:59:56.256Z,55.90
2018-06-09T19:02:25.978Z,74.95
2018-06-09T19:04:54.779Z,55.92
2018-06-09T19:07:23.384Z,63.02
2018-06-09T19:09:51.971Z,57.00
2018-06-09T19:12:20.435Z,49.33
2018-06-09T19:14:49.170Z,46.00
2018-06-09T19:17:17.699Z,44.58
2018-06-09T19:19:46.250Z,54.03
2018-06-09T19:22:15.026Z,41.07
2018-06-09T19:24:43.465Z,33.83
2018-06-09T19:27:11.861Z,44.40
2018-06-09T19:29:40.477Z,32.77
2018-06-09T19:32:08.944Z,16.20
2018-06-09T19:34:37.394Z,27.67
2018-06-09T19:37:05.893Z,30.48
2018-06-09T19:39:34.662Z,30.13
2018-06-09T19:42:03.304Z,26.37
2018-06-09T19:44:32.013Z,32.30
2018-06-09T19:47:00.778Z,30.50
2018-06-09T19:49:37.514Z,17.23
2018-06-09T19:55:21.809Z,24.25
2018-06-09T19:58:13.830Z,29.60
2018-06-09T20:00:47.814Z,29.47
2018-06-09T20:06:01.359Z,29.25
2018-06-09T20:11:59.994Z,24.03
2018-06-09T20:14:28.933Z,38.40
2018-06-09T20:16:59.241Z,42.85
2018-06-09T20:19:28.460Z,27.95
2018-06-09T20:21:57.041Z,43.95
2018-06-09T20:24:25.634Z,41.23
2018-06-09T20:27:00.186Z,44.08
2018-06-09T20:29:34.974Z,44.87
2018-06-09T20:32:08.960Z,30.37
2018-06-09T20:37:39.164Z,25.35
2018-06-09T20:42:52.437Z,33.30
2018-06-09T20:45:21.976Z,37.40
2018-06-09T20:47:51.165Z,41.30
2018-06-09T20:50:20.144Z,25.60
2018-06-09T20:56:24.023Z,30.48
2018-06-09T20:59:22.351Z,41.30
2018-06-09T21:02:04.061Z,42.53
2018-06-09T21:07:38.997Z,40.45
2018-06-09T21:13:25.566Z,38.73
2018-06-09T21:15:55.604Z,44.42
2018-06-09T21:21:43.194Z,33.73
2018-06-09T21:24:35.023Z,38.10
2018-06-09T21:27:33.880Z,22.80
2018-06-09T21:36:42.760Z,31.82
2018-06-09T21:42:45.690Z,27.20
2018-06-09T21:51:38.589Z,29.57
2018-06-09T21:54:10.150Z,32.90
2018-06-09T21:59:47.497Z,39.03
2018-06-09T22:02:18.030Z,32.80
2018-06-09T22:04:47.223Z,39.90
2018-06-09T22:07:22.193Z,34.45
2018-06-09T22:09:51.934Z,25.75
2018-06-09T22:15:57.805Z,33.67
2018-06-09T22:18:48.281Z,39.00
2018-06-09T22:21:19.322Z,36.48
2018-06-09T22:23:47.889Z,30.30
2018-06-09T22:26:17.265Z,34.13
2018-06-09T22:28:50.604Z,30.72
2018-06-09T22:31:36.637Z,41.48
2018-06-09T22:34:08.150Z,33.90
2018-06-09T22:36:37.158Z,35.63
2018-06-09T22:39:08.115Z,40.30
2018-06-09T22:41:36.550Z,26.23
2018-06-09T22:44:05.105Z,20.80
2018-06-09T22:46:33.529Z,26.87
2018-06-09T22:49:01.989Z,32.08
2018-06-09T22:51:30.398Z,43.25
2018-06-09T22:53:58.842Z,47.20
2018-06-09T22:56:27.306Z,43.92
2018-06-09T22:58:55.746Z,39.75
2018-06-09T23:01:24.228Z,46.42
2018-06-09T23:03:53.213Z,46.98
2018-06-09T23:06:23.876Z,26.83
2018-06-09T23:08:52.355Z,41.18
2018-06-09T23:11:20.738Z,40.43
2018-06-09T23:13:55.338Z,39.80
2018-06-09T23:19:41.246Z,38.30
2018-06-09T23:22:15.612Z,30.23
2018-06-09T23:24:44.088Z,34.53
2018-06-09T23:27:12.449Z,24.00
2018-06-09T23:29:40.849Z,35.43
2018-06-09T23:32:09.273Z,40.33
2018-06-09T23:34:37.636Z,30.37
2018-06-09T23:37:06.045Z,36.80
2018-06-09T23:39:34.579Z,29.70
2018-06-09T23:42:03.015Z,24.17
2018-06-09T23:44:31.378Z,35.13
2018-06-09T23:46:59.792Z,32.00
2018-06-09T23:49:28.176Z,36.97
2018-06-09T23:51:56.569Z,38.43
2018-06-09T23:54:24.952Z,39.67
2018-06-09T23:56:53.324Z,43.67
2018-06-09T23:59:21.719Z,33.20
